Terminal Aerodrome Forecast
Issued by NWS Wilmington, NC

Home | Current Version | Previous Version | Text Only | Print | Product List | Glossary On
Versions: 1 2 3 4 5 6 7 8 9 10 11 12 13
000
FTUS42 KILM 261123
TAFMYR
TAF
KMYR 261123Z 2612/2712 23006KT P6SM SCT080
     FM261600 18011KT P6SM SCT050 SCT080
     FM270300 VRB02KT P6SM SCT070=

USA.gov is the U.S. government's official web portal to all federal, state and local government web resources and services.